sensor_id;sensor_type;location;lat;lon;timestamp;P1;durP1;ratioP1;P2;durP2;ratioP2
19404;SDS011;9838;49.384;8.292;2023-05-20T00:02:32;0.90;;;0.60;;
19404;SDS011;9838;49.384;8.292;2023-05-20T00:12:34;1.23;;;0.53;;
19404;SDS011;9838;49.384;8.292;2023-05-20T00:22:36;0.70;;;0.60;;
19404;SDS011;9838;49.384;8.292;2023-05-20T00:32:38;0.70;;;0.57;;
19404;SDS011;9838;49.384;8.292;2023-05-20T00:42:40;2.00;;;0.90;;
19404;SDS011;9838;49.384;8.292;2023-05-20T00:52:42;2.83;;;0.60;;
19404;SDS011;9838;49.384;8.292;2023-05-20T01:02:45;2.87;;;0.80;;
19404;SDS011;9838;49.384;8.292;2023-05-20T01:12:47;1.60;;;0.80;;
19404;SDS011;9838;49.384;8.292;2023-05-20T01:22:53;1.10;;;0.60;;
19404;SDS011;9838;49.384;8.292;2023-05-20T01:33:00;1.30;;;0.60;;
19404;SDS011;9838;49.384;8.292;2023-05-20T01:43:04;1.63;;;0.63;;
19404;SDS011;9838;49.384;8.292;2023-05-20T01:53:06;1.50;;;0.70;;
19404;SDS011;9838;49.384;8.292;2023-05-20T02:03:09;2.27;;;0.80;;
19404;SDS011;9838;49.384;8.292;2023-05-20T02:13:13;1.77;;;0.70;;
19404;SDS011;9838;49.384;8.292;2023-05-20T02:23:15;1.10;;;0.50;;
19404;SDS011;9838;49.384;8.292;2023-05-20T02:33:20;0.63;;;0.50;;
19404;SDS011;9838;49.384;8.292;2023-05-20T02:43:22;1.93;;;0.90;;
19404;SDS011;9838;49.384;8.292;2023-05-20T02:53:23;1.20;;;0.50;;
19404;SDS011;9838;49.384;8.292;2023-05-20T03:03:26;0.97;;;0.50;;
19404;SDS011;9838;49.384;8.292;2023-05-20T03:13:27;1.17;;;0.53;;
19404;SDS011;9838;49.384;8.292;2023-05-20T03:23:29;1.07;;;0.67;;
19404;SDS011;9838;49.384;8.292;2023-05-20T03:33:32;1.30;;;0.73;;
19404;SDS011;9838;49.384;8.292;2023-05-20T03:43:34;1.33;;;0.80;;
19404;SDS011;9838;49.384;8.292;2023-05-20T03:53:36;0.90;;;0.60;;
19404;SDS011;9838;49.384;8.292;2023-05-20T04:03:39;2.50;;;0.80;;
19404;SDS011;9838;49.384;8.292;2023-05-20T04:13:44;1.37;;;0.90;;
19404;SDS011;9838;49.384;8.292;2023-05-20T04:23:46;2.33;;;0.93;;
19404;SDS011;9838;49.384;8.292;2023-05-20T04:33:48;1.13;;;0.70;;
19404;SDS011;9838;49.384;8.292;2023-05-20T04:43:50;1.07;;;0.70;;
19404;SDS011;9838;49.384;8.292;2023-05-20T04:53:53;1.73;;;0.80;;
19404;SDS011;9838;49.384;8.292;2023-05-20T05:03:55;1.30;;;0.70;;
19404;SDS011;9838;49.384;8.292;2023-05-20T05:13:57;0.93;;;0.70;;
19404;SDS011;9838;49.384;8.292;2023-05-20T05:24:00;1.97;;;0.90;;
19404;SDS011;9838;49.384;8.292;2023-05-20T05:34:02;1.43;;;0.93;;
19404;SDS011;9838;49.384;8.292;2023-05-20T05:44:04;1.07;;;0.70;;
19404;SDS011;9838;49.384;8.292;2023-05-20T05:54:06;1.97;;;0.73;;
19404;SDS011;9838;49.384;8.292;2023-05-20T06:04:09;2.63;;;0.80;;
19404;SDS011;9838;49.384;8.292;2023-05-20T06:14:11;1.80;;;0.80;;
19404;SDS011;9838;49.384;8.292;2023-05-20T06:24:13;1.20;;;0.70;;
19404;SDS011;9838;49.384;8.292;2023-05-20T06:34:16;1.43;;;1.00;;
19404;SDS011;9838;49.384;8.292;2023-05-20T06:44:18;1.40;;;0.80;;
19404;SDS011;9838;49.384;8.292;2023-05-20T06:54:46;1.67;;;0.90;;
19404;SDS011;9838;49.384;8.292;2023-05-20T07:04:49;1.23;;;0.87;;
19404;SDS011;9838;49.384;8.292;2023-05-20T07:14:51;1.27;;;0.90;;
19404;SDS011;9838;49.384;8.292;2023-05-20T07:24:53;1.73;;;1.03;;
19404;SDS011;9838;49.384;8.292;2023-05-20T07:34:55;1.40;;;0.97;;
19404;SDS011;9838;49.384;8.292;2023-05-20T07:44:57;1.60;;;1.10;;
19404;SDS011;9838;49.384;8.292;2023-05-20T07:54:59;2.77;;;1.40;;
19404;SDS011;9838;49.384;8.292;2023-05-20T08:05:01;1.97;;;1.07;;
19404;SDS011;9838;49.384;8.292;2023-05-20T08:15:05;3.20;;;1.30;;
19404;SDS011;9838;49.384;8.292;2023-05-20T08:25:07;1.47;;;1.03;;
19404;SDS011;9838;49.384;8.292;2023-05-20T08:35:09;1.87;;;1.00;;
19404;SDS011;9838;49.384;8.292;2023-05-20T08:45:11;1.60;;;1.10;;
19404;SDS011;9838;49.384;8.292;2023-05-20T08:55:15;2.13;;;1.13;;
19404;SDS011;9838;49.384;8.292;2023-05-20T09:05:22;2.03;;;1.23;;
19404;SDS011;9838;49.384;8.292;2023-05-20T09:15:24;4.93;;;1.37;;
19404;SDS011;9838;49.384;8.292;2023-05-20T09:25:25;2.17;;;1.30;;
19404;SDS011;9838;49.384;8.292;2023-05-20T09:35:29;1.40;;;1.00;;
19404;SDS011;9838;49.384;8.292;2023-05-20T09:45:30;2.30;;;1.20;;
19404;SDS011;9838;49.384;8.292;2023-05-20T09:55:33;4.77;;;1.70;;
19404;SDS011;9838;49.384;8.292;2023-05-20T10:05:39;1.90;;;1.30;;
19404;SDS011;9838;49.384;8.292;2023-05-20T10:25:50;2.57;;;1.40;;
19404;SDS011;9838;49.384;8.292;2023-05-20T10:35:53;3.73;;;1.57;;
19404;SDS011;9838;49.384;8.292;2023-05-20T10:45:58;1.67;;;1.27;;
19404;SDS011;9838;49.384;8.292;2023-05-20T10:55:59;1.60;;;1.13;;
19404;SDS011;9838;49.384;8.292;2023-05-20T11:06:01;2.60;;;1.40;;
19404;SDS011;9838;49.384;8.292;2023-05-20T11:16:10;1.10;;;0.80;;
19404;SDS011;9838;49.384;8.292;2023-05-20T11:26:13;2.97;;;1.60;;
19404;SDS011;9838;49.384;8.292;2023-05-20T11:36:15;1.83;;;1.10;;
19404;SDS011;9838;49.384;8.292;2023-05-20T11:46:17;4.03;;;1.40;;
19404;SDS011;9838;49.384;8.292;2023-05-20T11:56:21;2.47;;;1.13;;
19404;SDS011;9838;49.384;8.292;2023-05-20T12:06:22;2.00;;;1.40;;
19404;SDS011;9838;49.384;8.292;2023-05-20T12:16:24;1.70;;;1.30;;
19404;SDS011;9838;49.384;8.292;2023-05-20T12:26:26;4.53;;;1.33;;
19404;SDS011;9838;49.384;8.292;2023-05-20T12:36:28;1.70;;;1.10;;
19404;SDS011;9838;49.384;8.292;2023-05-20T12:46:31;1.73;;;1.33;;
19404;SDS011;9838;49.384;8.292;2023-05-20T12:56:32;1.97;;;1.40;;
19404;SDS011;9838;49.384;8.292;2023-05-20T13:06:34;1.70;;;1.30;;
19404;SDS011;9838;49.384;8.292;2023-05-20T13:16:36;1.53;;;1.13;;
19404;SDS011;9838;49.384;8.292;2023-05-20T13:26:38;3.35;;;2.55;;
19404;SDS011;9838;49.384;8.292;2023-05-20T13:36:41;5.15;;;1.77;;
19404;SDS011;9838;49.384;8.292;2023-05-20T13:46:42;2.63;;;1.53;;
19404;SDS011;9838;49.384;8.292;2023-05-20T13:56:44;1.77;;;1.30;;
19404;SDS011;9838;49.384;8.292;2023-05-20T14:06:46;3.75;;;1.50;;
19404;SDS011;9838;49.384;8.292;2023-05-20T14:16:48;1.80;;;1.50;;
19404;SDS011;9838;49.384;8.292;2023-05-20T14:26:50;1.70;;;1.40;;
19404;SDS011;9838;49.384;8.292;2023-05-20T14:36:51;2.63;;;1.40;;
19404;SDS011;9838;49.384;8.292;2023-05-20T14:46:53;3.67;;;1.40;;
19404;SDS011;9838;49.384;8.292;2023-05-20T14:56:55;1.75;;;1.10;;
19404;SDS011;9838;49.384;8.292;2023-05-20T15:06:57;2.95;;;1.80;;
19404;SDS011;9838;49.384;8.292;2023-05-20T15:16:59;1.95;;;1.40;;
19404;SDS011;9838;49.384;8.292;2023-05-20T15:27:01;2.30;;;1.50;;
19404;SDS011;9838;49.384;8.292;2023-05-20T15:37:03;2.65;;;1.75;;
19404;SDS011;9838;49.384;8.292;2023-05-20T15:47:05;3.78;;;1.67;;
19404;SDS011;9838;49.384;8.292;2023-05-20T15:57:07;3.83;;;1.58;;
19404;SDS011;9838;49.384;8.292;2023-05-20T16:07:09;2.92;;;1.95;;
19404;SDS011;9838;49.384;8.292;2023-05-20T16:17:11;2.50;;;1.85;;
19404;SDS011;9838;49.384;8.292;2023-05-20T16:27:13;3.08;;;2.15;;
19404;SDS011;9838;49.384;8.292;2023-05-20T16:37:15;3.25;;;2.30;;
19404;SDS011;9838;49.384;8.292;2023-05-20T16:47:17;3.60;;;2.00;;
19404;SDS011;9838;49.384;8.292;2023-05-20T16:57:19;5.35;;;2.28;;
19404;SDS011;9838;49.384;8.292;2023-05-20T17:07:21;2.58;;;1.83;;
19404;SDS011;9838;49.384;8.292;2023-05-20T17:17:23;3.13;;;1.98;;
19404;SDS011;9838;49.384;8.292;2023-05-20T17:27:25;2.25;;;1.77;;
19404;SDS011;9838;49.384;8.292;2023-05-20T17:37:27;2.45;;;1.75;;
19404;SDS011;9838;49.384;8.292;2023-05-20T17:47:29;2.75;;;1.95;;
19404;SDS011;9838;49.384;8.292;2023-05-20T17:57:31;3.30;;;2.35;;
19404;SDS011;9838;49.384;8.292;2023-05-20T18:07:33;2.57;;;1.80;;
19404;SDS011;9838;49.384;8.292;2023-05-20T18:17:37;3.23;;;2.30;;
19404;SDS011;9838;49.384;8.292;2023-05-20T18:27:39;2.83;;;1.80;;
19404;SDS011;9838;49.384;8.292;2023-05-20T18:37:42;3.83;;;2.07;;
19404;SDS011;9838;49.384;8.292;2023-05-20T18:47:43;2.80;;;2.10;;
19404;SDS011;9838;49.384;8.292;2023-05-20T18:57:45;3.27;;;2.07;;
19404;SDS011;9838;49.384;8.292;2023-05-20T19:07:48;3.87;;;2.13;;
19404;SDS011;9838;49.384;8.292;2023-05-20T19:17:50;3.03;;;2.20;;
19404;SDS011;9838;49.384;8.292;2023-05-20T19:27:51;3.07;;;2.33;;
19404;SDS011;9838;49.384;8.292;2023-05-20T19:37:53;3.33;;;2.20;;
19404;SDS011;9838;49.384;8.292;2023-05-20T19:47:55;2.77;;;2.23;;
19404;SDS011;9838;49.384;8.292;2023-05-20T19:57:57;2.77;;;2.30;;
19404;SDS011;9838;49.384;8.292;2023-05-20T20:07:59;3.33;;;2.13;;
19404;SDS011;9838;49.384;8.292;2023-05-20T20:18:01;2.90;;;2.40;;
19404;SDS011;9838;49.384;8.292;2023-05-20T20:28:04;8.03;;;2.50;;
19404;SDS011;9838;49.384;8.292;2023-05-20T20:38:07;3.40;;;2.67;;
19404;SDS011;9838;49.384;8.292;2023-05-20T20:48:10;3.67;;;2.53;;
19404;SDS011;9838;49.384;8.292;2023-05-20T20:58:18;3.20;;;2.47;;
19404;SDS011;9838;49.384;8.292;2023-05-20T21:08:20;4.03;;;2.97;;
19404;SDS011;9838;49.384;8.292;2023-05-20T21:18:27;5.40;;;2.67;;
19404;SDS011;9838;49.384;8.292;2023-05-20T21:28:30;3.77;;;3.00;;
19404;SDS011;9838;49.384;8.292;2023-05-20T21:38:32;6.30;;;3.07;;
19404;SDS011;9838;49.384;8.292;2023-05-20T21:48:34;5.53;;;3.20;;
19404;SDS011;9838;49.384;8.292;2023-05-20T21:58:36;4.10;;;3.13;;
19404;SDS011;9838;49.384;8.292;2023-05-20T22:08:40;4.33;;;3.20;;
19404;SDS011;9838;49.384;8.292;2023-05-20T22:18:42;4.53;;;3.17;;
19404;SDS011;9838;49.384;8.292;2023-05-20T22:28:47;6.77;;;3.63;;
19404;SDS011;9838;49.384;8.292;2023-05-20T22:38:49;4.70;;;3.37;;
19404;SDS011;9838;49.384;8.292;2023-05-20T22:48:51;4.53;;;3.30;;
19404;SDS011;9838;49.384;8.292;2023-05-20T22:58:54;5.40;;;3.57;;
19404;SDS011;9838;49.384;8.292;2023-05-20T23:08:55;5.17;;;3.23;;
19404;SDS011;9838;49.384;8.292;2023-05-20T23:18:57;4.10;;;3.27;;
19404;SDS011;9838;49.384;8.292;2023-05-20T23:28:59;3.90;;;2.93;;
19404;SDS011;9838;49.384;8.292;2023-05-20T23:39:01;5.10;;;3.20;;
19404;SDS011;9838;49.384;8.292;2023-05-20T23:49:03;4.67;;;3.30;;
19404;SDS011;9838;49.384;8.292;2023-05-20T23:59:04;4.30;;;3.00;;
